sensor_id;sensor_type;location;lat;lon;timestamp;pressure;altitude;pressure_sealevel;temperature;humidity
19827;BME280;10074;52.018;4.726;2024-03-08T00:03:29;46251.34;;;-144.79;100.00
19827;BME280;10074;52.018;4.726;2024-03-08T00:08:30;46239.31;;;-144.79;100.00
19827;BME280;10074;52.018;4.726;2024-03-08T00:13:31;46233.28;;;-144.79;100.00
19827;BME280;10074;52.018;4.726;2024-03-08T00:18:31;46243.31;;;-144.79;100.00
19827;BME280;10074;52.018;4.726;2024-03-08T00:23:31;46241.31;;;-144.79;100.00
19827;BME280;10074;52.018;4.726;2024-03-08T00:28:33;46235.28;;;-144.79;100.00
19827;BME280;10074;52.018;4.726;2024-03-08T00:33:34;46243.31;;;-144.79;100.00
19827;BME280;10074;52.018;4.726;2024-03-08T00:38:34;46243.31;;;-144.79;100.00
19827;BME280;10074;52.018;4.726;2024-03-08T00:43:35;46233.28;;;-144.79;100.00
19827;BME280;10074;52.018;4.726;2024-03-08T00:48:35;46235.28;;;-144.79;100.00
19827;BME280;10074;52.018;4.726;2024-03-08T00:53:36;46235.28;;;-144.79;100.00
19827;BME280;10074;52.018;4.726;2024-03-08T00:58:37;46239.31;;;-144.79;100.00
19827;BME280;10074;52.018;4.726;2024-03-08T01:03:37;46235.28;;;-144.79;100.00
19827;BME280;10074;52.018;4.726;2024-03-08T01:08:37;46239.31;;;-144.79;100.00
19827;BME280;10074;52.018;4.726;2024-03-08T01:13:38;46235.28;;;-144.79;100.00
19827;BME280;10074;52.018;4.726;2024-03-08T01:18:38;46243.31;;;-144.79;100.00
19827;BME280;10074;52.018;4.726;2024-03-08T01:23:39;46239.31;;;-144.79;100.00
19827;BME280;10074;52.018;4.726;2024-03-08T01:28:39;46231.28;;;-144.79;100.00
19827;BME280;10074;52.018;4.726;2024-03-08T01:33:40;46239.31;;;-144.79;100.00
19827;BME280;10074;52.018;4.726;2024-03-08T01:38:40;46235.28;;;-144.79;100.00
19827;BME280;10074;52.018;4.726;2024-03-08T01:43:40;46237.31;;;-144.79;100.00
19827;BME280;10074;52.018;4.726;2024-03-08T01:48:41;46227.28;;;-144.79;100.00
19827;BME280;10074;52.018;4.726;2024-03-08T01:53:43;46231.28;;;-144.79;100.00
19827;BME280;10074;52.018;4.726;2024-03-08T01:58:45;46229.28;;;-144.79;100.00
19827;BME280;10074;52.018;4.726;2024-03-08T02:03:47;46227.28;;;-144.79;100.00
19827;BME280;10074;52.018;4.726;2024-03-08T02:08:47;46233.28;;;-144.79;100.00
19827;BME280;10074;52.018;4.726;2024-03-08T02:13:48;46231.28;;;-144.79;100.00
19827;BME280;10074;52.018;4.726;2024-03-08T02:18:48;46235.28;;;-144.79;100.00
19827;BME280;10074;52.018;4.726;2024-03-08T02:23:48;46235.28;;;-144.79;100.00
19827;BME280;10074;52.018;4.726;2024-03-08T02:28:52;46227.28;;;-144.79;100.00
19827;BME280;10074;52.018;4.726;2024-03-08T02:33:52;46227.28;;;-144.79;100.00
19827;BME280;10074;52.018;4.726;2024-03-08T02:38:53;46225.28;;;-144.79;100.00
19827;BME280;10074;52.018;4.726;2024-03-08T02:43:55;46237.31;;;-144.79;100.00
19827;BME280;10074;52.018;4.726;2024-03-08T02:48:56;46239.31;;;-144.79;100.00
19827;BME280;10074;52.018;4.726;2024-03-08T02:53:56;46223.25;;;-144.79;100.00
19827;BME280;10074;52.018;4.726;2024-03-08T02:58:56;46223.25;;;-144.79;100.00
19827;BME280;10074;52.018;4.726;2024-03-08T03:03:57;46221.25;;;-144.79;100.00
19827;BME280;10074;52.018;4.726;2024-03-08T03:08:58;46231.28;;;-144.79;100.00
19827;BME280;10074;52.018;4.726;2024-03-08T03:13:58;46229.28;;;-144.79;100.00
19827;BME280;10074;52.018;4.726;2024-03-08T03:18:58;46215.25;;;-144.79;100.00
19827;BME280;10074;52.018;4.726;2024-03-08T03:24:01;46221.25;;;-144.79;100.00
19827;BME280;10074;52.018;4.726;2024-03-08T03:29:02;46225.28;;;-144.79;100.00
19827;BME280;10074;52.018;4.726;2024-03-08T03:34:03;46225.28;;;-144.79;100.00
19827;BME280;10074;52.018;4.726;2024-03-08T03:39:04;46215.25;;;-144.79;100.00
19827;BME280;10074;52.018;4.726;2024-03-08T03:44:11;46233.28;;;-144.79;100.00
19827;BME280;10074;52.018;4.726;2024-03-08T03:49:11;46219.25;;;-144.79;100.00
19827;BME280;10074;52.018;4.726;2024-03-08T03:54:12;46233.28;;;-144.79;100.00
19827;BME280;10074;52.018;4.726;2024-03-08T03:59:13;46223.25;;;-144.79;100.00
19827;BME280;10074;52.018;4.726;2024-03-08T04:04:13;46227.28;;;-144.79;100.00
19827;BME280;10074;52.018;4.726;2024-03-08T04:09:13;46213.25;;;-144.79;100.00
19827;BME280;10074;52.018;4.726;2024-03-08T04:14:14;46227.28;;;-144.79;100.00
19827;BME280;10074;52.018;4.726;2024-03-08T04:19:14;46229.28;;;-144.79;100.00
19827;BME280;10074;52.018;4.726;2024-03-08T04:24:14;46227.28;;;-144.79;100.00
19827;BME280;10074;52.018;4.726;2024-03-08T04:29:15;46227.28;;;-144.79;100.00
19827;BME280;10074;52.018;4.726;2024-03-08T04:34:17;46227.28;;;-144.79;100.00
19827;BME280;10074;52.018;4.726;2024-03-08T04:39:17;46215.25;;;-144.79;100.00
19827;BME280;10074;52.018;4.726;2024-03-08T04:44:18;46223.25;;;-144.79;100.00
19827;BME280;10074;52.018;4.726;2024-03-08T04:49:19;46213.25;;;-144.79;100.00
19827;BME280;10074;52.018;4.726;2024-03-08T04:54:21;46213.25;;;-144.79;100.00
19827;BME280;10074;52.018;4.726;2024-03-08T04:59:22;46219.25;;;-144.79;100.00
19827;BME280;10074;52.018;4.726;2024-03-08T05:04:22;46209.22;;;-144.79;100.00
19827;BME280;10074;52.018;4.726;2024-03-08T05:09:22;46213.25;;;-144.79;100.00
19827;BME280;10074;52.018;4.726;2024-03-08T05:14:23;46215.25;;;-144.79;100.00
19827;BME280;10074;52.018;4.726;2024-03-08T05:19:25;46217.25;;;-144.79;100.00
19827;BME280;10074;52.018;4.726;2024-03-08T05:24:25;46219.25;;;-144.79;100.00
19827;BME280;10074;52.018;4.726;2024-03-08T05:29:26;46215.25;;;-144.79;100.00
19827;BME280;10074;52.018;4.726;2024-03-08T05:34:26;46211.22;;;-144.79;100.00
19827;BME280;10074;52.018;4.726;2024-03-08T05:39:28;46219.25;;;-144.79;100.00
19827;BME280;10074;52.018;4.726;2024-03-08T05:44:29;46211.22;;;-144.79;100.00
19827;BME280;10074;52.018;4.726;2024-03-08T05:49:31;46215.25;;;-144.79;100.00
19827;BME280;10074;52.018;4.726;2024-03-08T05:54:31;46211.22;;;-144.79;100.00
19827;BME280;10074;52.018;4.726;2024-03-08T05:59:33;46215.25;;;-144.79;100.00
19827;BME280;10074;52.018;4.726;2024-03-08T06:04:33;46195.19;;;-144.79;100.00
19827;BME280;10074;52.018;4.726;2024-03-08T06:09:33;46221.25;;;-144.79;100.00
19827;BME280;10074;52.018;4.726;2024-03-08T06:14:34;46217.25;;;-144.79;100.00
19827;BME280;10074;52.018;4.726;2024-03-08T06:19:34;46213.25;;;-144.79;100.00
19827;BME280;10074;52.018;4.726;2024-03-08T06:24:36;46209.22;;;-144.79;100.00
19827;BME280;10074;52.018;4.726;2024-03-08T06:29:38;46207.22;;;-144.79;100.00
19827;BME280;10074;52.018;4.726;2024-03-08T06:34:39;46215.25;;;-144.79;100.00
19827;BME280;10074;52.018;4.726;2024-03-08T06:39:39;46201.22;;;-144.79;100.00
19827;BME280;10074;52.018;4.726;2024-03-08T06:44:40;46207.22;;;-144.79;100.00
19827;BME280;10074;52.018;4.726;2024-03-08T06:49:48;46219.25;;;-144.79;100.00
19827;BME280;10074;52.018;4.726;2024-03-08T06:54:49;46217.25;;;-144.79;100.00
19827;BME280;10074;52.018;4.726;2024-03-08T06:59:50;46205.22;;;-144.79;100.00
19827;BME280;10074;52.018;4.726;2024-03-08T07:04:52;46209.22;;;-144.79;100.00
19827;BME280;10074;52.018;4.726;2024-03-08T07:09:53;46211.22;;;-144.79;100.00
19827;BME280;10074;52.018;4.726;2024-03-08T07:14:53;46209.22;;;-144.79;100.00
19827;BME280;10074;52.018;4.726;2024-03-08T07:19:54;46199.19;;;-144.79;100.00
19827;BME280;10074;52.018;4.726;2024-03-08T07:24:54;46211.22;;;-144.79;100.00
19827;BME280;10074;52.018;4.726;2024-03-08T07:30:13;46203.22;;;-144.79;100.00
19827;BME280;10074;52.018;4.726;2024-03-08T07:35:33;46211.22;;;-144.79;100.00
19827;BME280;10074;52.018;4.726;2024-03-08T07:40:38;46205.22;;;-144.79;100.00
19827;BME280;10074;52.018;4.726;2024-03-08T07:45:40;46189.19;;;-144.79;100.00
19827;BME280;10074;52.018;4.726;2024-03-08T07:50:41;46215.25;;;-144.79;100.00
19827;BME280;10074;52.018;4.726;2024-03-08T07:55:42;46207.22;;;-144.79;100.00
19827;BME280;10074;52.018;4.726;2024-03-08T08:00:43;46205.22;;;-144.79;100.00
19827;BME280;10074;52.018;4.726;2024-03-08T08:05:44;46203.22;;;-144.79;100.00
19827;BME280;10074;52.018;4.726;2024-03-08T08:10:44;46203.22;;;-144.79;100.00
19827;BME280;10074;52.018;4.726;2024-03-08T08:15:44;46207.22;;;-144.79;100.00
19827;BME280;10074;52.018;4.726;2024-03-08T08:20:45;46191.19;;;-144.79;100.00
19827;BME280;10074;52.018;4.726;2024-03-08T08:25:46;46205.22;;;-144.79;100.00
19827;BME280;10074;52.018;4.726;2024-03-08T08:30:49;46199.19;;;-144.79;100.00
19827;BME280;10074;52.018;4.726;2024-03-08T08:35:50;46219.25;;;-144.79;100.00
19827;BME280;10074;52.018;4.726;2024-03-08T08:40:53;46205.22;;;-144.79;100.00
19827;BME280;10074;52.018;4.726;2024-03-08T08:45:54;46207.22;;;-144.79;100.00
19827;BME280;10074;52.018;4.726;2024-03-08T08:50:55;46197.19;;;-144.79;100.00
19827;BME280;10074;52.018;4.726;2024-03-08T08:55:55;46197.19;;;-144.79;100.00
19827;BME280;10074;52.018;4.726;2024-03-08T09:00:56;46209.22;;;-144.79;100.00
19827;BME280;10074;52.018;4.726;2024-03-08T09:05:56;46211.22;;;-144.79;100.00
19827;BME280;10074;52.018;4.726;2024-03-08T09:10:57;46225.28;;;-144.79;100.00
19827;BME280;10074;52.018;4.726;2024-03-08T09:16:00;46227.28;;;-144.79;100.00
19827;BME280;10074;52.018;4.726;2024-03-08T09:21:00;46223.25;;;-144.79;100.00
19827;BME280;10074;52.018;4.726;2024-03-08T09:26:00;46223.25;;;-144.79;100.00
19827;BME280;10074;52.018;4.726;2024-03-08T09:31:01;46223.25;;;-144.79;100.00
19827;BME280;10074;52.018;4.726;2024-03-08T09:36:02;46221.25;;;-144.79;100.00
19827;BME280;10074;52.018;4.726;2024-03-08T09:41:04;46241.31;;;-144.79;100.00
19827;BME280;10074;52.018;4.726;2024-03-08T09:46:05;46221.25;;;-144.79;100.00
19827;BME280;10074;52.018;4.726;2024-03-08T09:51:07;46223.25;;;-144.79;100.00
19827;BME280;10074;52.018;4.726;2024-03-08T09:56:08;46235.28;;;-144.79;100.00
19827;BME280;10074;52.018;4.726;2024-03-08T10:01:08;46233.28;;;-144.79;100.00
19827;BME280;10074;52.018;4.726;2024-03-08T10:06:11;46219.25;;;-144.79;100.00
19827;BME280;10074;52.018;4.726;2024-03-08T10:11:12;46239.31;;;-144.79;100.00
19827;BME280;10074;52.018;4.726;2024-03-08T10:16:12;46233.28;;;-144.79;100.00
19827;BME280;10074;52.018;4.726;2024-03-08T10:21:13;46229.28;;;-144.79;100.00
19827;BME280;10074;52.018;4.726;2024-03-08T10:26:16;46207.22;;;-144.79;100.00
19827;BME280;10074;52.018;4.726;2024-03-08T10:31:19;46151.09;;;-144.79;100.00
19827;BME280;10074;52.018;4.726;2024-03-08T10:36:20;46115.00;;;-144.79;100.00
19827;BME280;10074;52.018;4.726;2024-03-08T10:41:23;46119.00;;;-144.79;98.99
19827;BME280;10074;52.018;4.726;2024-03-08T10:46:53;46157.09;;;-144.79;97.48
19827;BME280;10074;52.018;4.726;2024-03-08T10:51:58;46183.16;;;-144.79;96.64
19827;BME280;10074;52.018;4.726;2024-03-08T10:56:59;46201.22;;;-144.79;95.88
19827;BME280;10074;52.018;4.726;2024-03-08T11:02:03;46171.13;;;-144.79;96.44
19827;BME280;10074;52.018;4.726;2024-03-08T11:07:04;46167.13;;;-144.79;95.82
19827;BME280;10074;52.018;4.726;2024-03-08T11:12:27;46129.03;;;-144.79;98.99
19827;BME280;10074;52.018;4.726;2024-03-08T11:22:33;46161.09;;;-144.79;100.00
19827;BME280;10074;52.018;4.726;2024-03-08T11:27:33;46159.09;;;-144.79;100.00
19827;BME280;10074;52.018;4.726;2024-03-08T11:32:35;46123.00;;;-144.79;100.00
19827;BME280;10074;52.018;4.726;2024-03-08T11:37:36;46147.06;;;-144.79;100.00
19827;BME280;10074;52.018;4.726;2024-03-08T11:42:36;46179.16;;;-144.79;100.00
19827;BME280;10074;52.018;4.726;2024-03-08T11:47:37;46159.09;;;-144.79;100.00
19827;BME280;10074;52.018;4.726;2024-03-08T11:52:40;46157.09;;;-144.79;100.00
19827;BME280;10074;52.018;4.726;2024-03-08T11:57:42;46153.09;;;-144.79;100.00
19827;BME280;10074;52.018;4.726;2024-03-08T12:02:43;46169.13;;;-144.79;100.00
19827;BME280;10074;52.018;4.726;2024-03-08T12:07:57;46169.13;;;-144.79;100.00
19827;BME280;10074;52.018;4.726;2024-03-08T12:12:58;46169.13;;;-144.79;100.00
19827;BME280;10074;52.018;4.726;2024-03-08T12:18:03;46187.19;;;-144.79;100.00
19827;BME280;10074;52.018;4.726;2024-03-08T12:23:05;46183.16;;;-144.79;100.00
19827;BME280;10074;52.018;4.726;2024-03-08T12:28:10;46171.13;;;-144.79;100.00
19827;BME280;10074;52.018;4.726;2024-03-08T12:33:10;46183.16;;;-144.79;100.00
19827;BME280;10074;52.018;4.726;2024-03-08T12:38:12;46181.16;;;-144.79;100.00
19827;BME280;10074;52.018;4.726;2024-03-08T12:43:13;46197.19;;;-144.79;100.00
19827;BME280;10074;52.018;4.726;2024-03-08T12:48:15;46181.16;;;-144.79;100.00
19827;BME280;10074;52.018;4.726;2024-03-08T12:53:16;46197.19;;;-144.79;100.00
19827;BME280;10074;52.018;4.726;2024-03-08T12:58:16;46195.19;;;-144.79;100.00
19827;BME280;10074;52.018;4.726;2024-03-08T13:03:16;46183.16;;;-144.79;100.00
19827;BME280;10074;52.018;4.726;2024-03-08T13:08:17;46203.22;;;-144.79;100.00
19827;BME280;10074;52.018;4.726;2024-03-08T13:13:18;46191.19;;;-144.79;100.00
19827;BME280;10074;52.018;4.726;2024-03-08T13:18:19;46199.19;;;-144.79;100.00
19827;BME280;10074;52.018;4.726;2024-03-08T13:23:19;46195.19;;;-144.79;100.00
19827;BME280;10074;52.018;4.726;2024-03-08T13:28:20;46191.19;;;-144.79;100.00
19827;BME280;10074;52.018;4.726;2024-03-08T13:33:23;46205.22;;;-144.79;100.00
19827;BME280;10074;52.018;4.726;2024-03-08T13:38:23;46173.13;;;-144.79;100.00
19827;BME280;10074;52.018;4.726;2024-03-08T13:43:24;46173.13;;;-144.79;100.00
19827;BME280;10074;52.018;4.726;2024-03-08T13:48:24;46185.16;;;-144.79;100.00
19827;BME280;10074;52.018;4.726;2024-03-08T13:53:25;46189.19;;;-144.79;100.00
19827;BME280;10074;52.018;4.726;2024-03-08T13:58:25;46187.19;;;-144.79;100.00
19827;BME280;10074;52.018;4.726;2024-03-08T14:03:25;46207.22;;;-144.79;100.00
19827;BME280;10074;52.018;4.726;2024-03-08T14:08:33;46177.16;;;-144.79;100.00
19827;BME280;10074;52.018;4.726;2024-03-08T14:13:33;46181.16;;;-144.79;100.00
19827;BME280;10074;52.018;4.726;2024-03-08T14:18:33;46211.22;;;-144.79;100.00
19827;BME280;10074;52.018;4.726;2024-03-08T14:23:34;46203.22;;;-144.79;100.00
19827;BME280;10074;52.018;4.726;2024-03-08T14:28:35;46191.19;;;-144.79;100.00
19827;BME280;10074;52.018;4.726;2024-03-08T14:33:35;46197.19;;;-144.79;100.00
19827;BME280;10074;52.018;4.726;2024-03-08T14:38:35;46199.19;;;-144.79;100.00
19827;BME280;10074;52.018;4.726;2024-03-08T14:43:38;46191.19;;;-144.79;100.00
19827;BME280;10074;52.018;4.726;2024-03-08T14:48:38;46203.22;;;-144.79;100.00
19827;BME280;10074;52.018;4.726;2024-03-08T14:53:40;46185.16;;;-144.79;100.00
19827;BME280;10074;52.018;4.726;2024-03-08T14:58:40;46205.22;;;-144.79;100.00
19827;BME280;10074;52.018;4.726;2024-03-08T15:03:42;46203.22;;;-144.79;100.00
19827;BME280;10074;52.018;4.726;2024-03-08T15:08:45;46195.19;;;-144.79;100.00
19827;BME280;10074;52.018;4.726;2024-03-08T15:13:46;46215.25;;;-144.79;100.00
19827;BME280;10074;52.018;4.726;2024-03-08T15:18:46;46199.19;;;-144.79;100.00
19827;BME280;10074;52.018;4.726;2024-03-08T15:23:47;46207.22;;;-144.79;100.00
19827;BME280;10074;52.018;4.726;2024-03-08T15:28:52;46197.19;;;-144.79;100.00
19827;BME280;10074;52.018;4.726;2024-03-08T15:33:54;46205.22;;;-144.79;100.00
19827;BME280;10074;52.018;4.726;2024-03-08T15:39:07;46207.22;;;-144.79;100.00
19827;BME280;10074;52.018;4.726;2024-03-08T15:44:10;46221.25;;;-144.79;100.00
19827;BME280;10074;52.018;4.726;2024-03-08T15:49:12;46205.22;;;-144.79;100.00
19827;BME280;10074;52.018;4.726;2024-03-08T15:54:12;46213.25;;;-144.79;100.00
19827;BME280;10074;52.018;4.726;2024-03-08T15:59:13;46211.22;;;-144.79;100.00
19827;BME280;10074;52.018;4.726;2024-03-08T16:04:13;46227.28;;;-144.79;100.00
19827;BME280;10074;52.018;4.726;2024-03-08T16:09:13;46209.22;;;-144.79;100.00
19827;BME280;10074;52.018;4.726;2024-03-08T16:14:15;46213.25;;;-144.79;100.00
19827;BME280;10074;52.018;4.726;2024-03-08T16:19:16;46225.28;;;-144.79;100.00
19827;BME280;10074;52.018;4.726;2024-03-08T16:24:16;46217.25;;;-144.79;100.00
19827;BME280;10074;52.018;4.726;2024-03-08T16:29:16;46215.25;;;-144.79;100.00
19827;BME280;10074;52.018;4.726;2024-03-08T16:34:17;46201.22;;;-144.79;100.00
19827;BME280;10074;52.018;4.726;2024-03-08T16:39:17;46207.22;;;-144.79;100.00
19827;BME280;10074;52.018;4.726;2024-03-08T16:44:18;46215.25;;;-144.79;100.00
19827;BME280;10074;52.018;4.726;2024-03-08T16:49:19;46207.22;;;-144.79;100.00
19827;BME280;10074;52.018;4.726;2024-03-08T16:54:20;46207.22;;;-144.79;100.00
19827;BME280;10074;52.018;4.726;2024-03-08T16:59:22;46207.22;;;-144.79;100.00
19827;BME280;10074;52.018;4.726;2024-03-08T17:04:22;46223.25;;;-144.79;100.00
19827;BME280;10074;52.018;4.726;2024-03-08T17:09:23;46215.25;;;-144.79;100.00
19827;BME280;10074;52.018;4.726;2024-03-08T17:14:25;46215.25;;;-144.79;100.00
19827;BME280;10074;52.018;4.726;2024-03-08T17:19:25;46223.25;;;-144.79;100.00
19827;BME280;10074;52.018;4.726;2024-03-08T17:24:29;46215.25;;;-144.79;100.00
19827;BME280;10074;52.018;4.726;2024-03-08T17:29:30;46215.25;;;-144.79;100.00
19827;BME280;10074;52.018;4.726;2024-03-08T17:34:30;46219.25;;;-144.79;100.00
19827;BME280;10074;52.018;4.726;2024-03-08T17:39:32;46211.22;;;-144.79;100.00
19827;BME280;10074;52.018;4.726;2024-03-08T17:44:33;46215.25;;;-144.79;100.00
19827;BME280;10074;52.018;4.726;2024-03-08T17:49:36;46223.25;;;-144.79;100.00
19827;BME280;10074;52.018;4.726;2024-03-08T17:54:40;46207.22;;;-144.79;100.00
19827;BME280;10074;52.018;4.726;2024-03-08T17:59:40;46227.28;;;-144.79;100.00
19827;BME280;10074;52.018;4.726;2024-03-08T18:04:41;46231.28;;;-144.79;100.00
19827;BME280;10074;52.018;4.726;2024-03-08T18:09:41;46215.25;;;-144.79;100.00
19827;BME280;10074;52.018;4.726;2024-03-08T18:14:44;46235.28;;;-144.79;100.00
19827;BME280;10074;52.018;4.726;2024-03-08T18:19:44;46215.25;;;-144.79;100.00
19827;BME280;10074;52.018;4.726;2024-03-08T18:24:47;46205.22;;;-144.79;100.00
19827;BME280;10074;52.018;4.726;2024-03-08T18:29:48;46223.25;;;-144.79;100.00
19827;BME280;10074;52.018;4.726;2024-03-08T18:34:48;46211.22;;;-144.79;100.00
19827;BME280;10074;52.018;4.726;2024-03-08T18:39:50;46207.22;;;-144.79;100.00
19827;BME280;10074;52.018;4.726;2024-03-08T18:44:50;46207.22;;;-144.79;100.00
19827;BME280;10074;52.018;4.726;2024-03-08T18:49:59;46211.22;;;-144.79;100.00
19827;BME280;10074;52.018;4.726;2024-03-08T18:54:59;46219.25;;;-144.79;100.00
19827;BME280;10074;52.018;4.726;2024-03-08T18:59:59;46211.22;;;-144.79;100.00
19827;BME280;10074;52.018;4.726;2024-03-08T19:05:00;46217.25;;;-144.79;100.00
19827;BME280;10074;52.018;4.726;2024-03-08T19:10:02;46223.25;;;-144.79;100.00
19827;BME280;10074;52.018;4.726;2024-03-08T19:15:07;46215.25;;;-144.79;100.00
19827;BME280;10074;52.018;4.726;2024-03-08T19:20:08;46213.25;;;-144.79;100.00
19827;BME280;10074;52.018;4.726;2024-03-08T19:25:16;46219.25;;;-144.79;100.00
19827;BME280;10074;52.018;4.726;2024-03-08T19:30:17;46215.25;;;-144.79;100.00
19827;BME280;10074;52.018;4.726;2024-03-08T19:35:21;46207.22;;;-144.79;100.00
19827;BME280;10074;52.018;4.726;2024-03-08T19:40:23;46209.22;;;-144.79;100.00
19827;BME280;10074;52.018;4.726;2024-03-08T19:45:29;46215.25;;;-144.79;100.00
19827;BME280;10074;52.018;4.726;2024-03-08T19:50:31;46219.25;;;-144.79;100.00
19827;BME280;10074;52.018;4.726;2024-03-08T19:55:33;46199.19;;;-144.79;100.00
19827;BME280;10074;52.018;4.726;2024-03-08T20:00:35;46213.25;;;-144.79;100.00
19827;BME280;10074;52.018;4.726;2024-03-08T20:05:36;46217.25;;;-144.79;100.00
19827;BME280;10074;52.018;4.726;2024-03-08T20:10:37;46217.25;;;-144.79;100.00
19827;BME280;10074;52.018;4.726;2024-03-08T20:15:38;46211.22;;;-144.79;100.00
19827;BME280;10074;52.018;4.726;2024-03-08T20:20:45;46225.28;;;-144.79;100.00
19827;BME280;10074;52.018;4.726;2024-03-08T20:25:48;46219.25;;;-144.79;100.00
19827;BME280;10074;52.018;4.726;2024-03-08T20:30:49;46195.19;;;-144.79;100.00
19827;BME280;10074;52.018;4.726;2024-03-08T20:35:51;46213.25;;;-144.79;100.00
19827;BME280;10074;52.018;4.726;2024-03-08T20:40:52;46211.22;;;-144.79;100.00
19827;BME280;10074;52.018;4.726;2024-03-08T20:45:52;46219.25;;;-144.79;100.00
19827;BME280;10074;52.018;4.726;2024-03-08T20:50:52;46227.28;;;-144.79;100.00
19827;BME280;10074;52.018;4.726;2024-03-08T20:55:54;46209.22;;;-144.79;100.00
19827;BME280;10074;52.018;4.726;2024-03-08T21:00:54;46211.22;;;-144.79;100.00
19827;BME280;10074;52.018;4.726;2024-03-08T21:05:55;46217.25;;;-144.79;100.00
19827;BME280;10074;52.018;4.726;2024-03-08T21:10:56;46211.22;;;-144.79;100.00
19827;BME280;10074;52.018;4.726;2024-03-08T21:15:56;46207.22;;;-144.79;100.00
19827;BME280;10074;52.018;4.726;2024-03-08T21:21:00;46215.25;;;-144.79;100.00
19827;BME280;10074;52.018;4.726;2024-03-08T21:26:01;46221.25;;;-144.79;100.00
19827;BME280;10074;52.018;4.726;2024-03-08T21:31:01;46209.22;;;-144.79;100.00
19827;BME280;10074;52.018;4.726;2024-03-08T21:36:02;46219.25;;;-144.79;100.00
19827;BME280;10074;52.018;4.726;2024-03-08T21:41:03;46211.22;;;-144.79;100.00
19827;BME280;10074;52.018;4.726;2024-03-08T21:46:08;46215.25;;;-144.79;100.00
19827;BME280;10074;52.018;4.726;2024-03-08T21:51:08;46217.25;;;-144.79;100.00
19827;BME280;10074;52.018;4.726;2024-03-08T21:56:09;46213.25;;;-144.79;100.00
19827;BME280;10074;52.018;4.726;2024-03-08T22:01:10;46219.25;;;-144.79;100.00
19827;BME280;10074;52.018;4.726;2024-03-08T22:06:10;46215.25;;;-144.79;100.00
19827;BME280;10074;52.018;4.726;2024-03-08T22:11:11;46225.28;;;-144.79;100.00
19827;BME280;10074;52.018;4.726;2024-03-08T22:16:12;46223.25;;;-144.79;100.00
19827;BME280;10074;52.018;4.726;2024-03-08T22:21:15;46211.22;;;-144.79;100.00
19827;BME280;10074;52.018;4.726;2024-03-08T22:26:17;46219.25;;;-144.79;100.00
19827;BME280;10074;52.018;4.726;2024-03-08T22:31:18;46221.25;;;-144.79;100.00
19827;BME280;10074;52.018;4.726;2024-03-08T22:36:19;46227.28;;;-144.79;100.00
19827;BME280;10074;52.018;4.726;2024-03-08T22:41:21;46215.25;;;-144.79;100.00
19827;BME280;10074;52.018;4.726;2024-03-08T22:46:21;46211.22;;;-144.79;100.00
19827;BME280;10074;52.018;4.726;2024-03-08T22:51:22;46223.25;;;-144.79;100.00
19827;BME280;10074;52.018;4.726;2024-03-08T22:56:25;46223.25;;;-144.79;100.00
19827;BME280;10074;52.018;4.726;2024-03-08T23:01:26;46227.28;;;-144.79;100.00
19827;BME280;10074;52.018;4.726;2024-03-08T23:06:33;46215.25;;;-144.79;100.00
19827;BME280;10074;52.018;4.726;2024-03-08T23:11:35;46209.22;;;-144.79;100.00
19827;BME280;10074;52.018;4.726;2024-03-08T23:16:36;46215.25;;;-144.79;100.00
19827;BME280;10074;52.018;4.726;2024-03-08T23:21:36;46211.22;;;-144.79;100.00
19827;BME280;10074;52.018;4.726;2024-03-08T23:26:37;46205.22;;;-144.79;100.00
19827;BME280;10074;52.018;4.726;2024-03-08T23:31:37;46223.25;;;-144.79;100.00
19827;BME280;10074;52.018;4.726;2024-03-08T23:36:39;46203.22;;;-144.79;100.00
19827;BME280;10074;52.018;4.726;2024-03-08T23:41:40;46203.22;;;-144.79;100.00
19827;BME280;10074;52.018;4.726;2024-03-08T23:46:41;46221.25;;;-144.79;100.00
19827;BME280;10074;52.018;4.726;2024-03-08T23:51:41;46215.25;;;-144.79;100.00
19827;BME280;10074;52.018;4.726;2024-03-08T23:56:43;46201.22;;;-144.79;100.00
